Time,TemperatureF,DewpointF,PressureIn,WindDirection,WindDirectionDegrees,WindSpeedMPH,WindSpeedGustMPH,Humidity,HourlyPrecipIn,Conditions,Clouds,dailyrainin,SolarRadiationWatts/m^2,SoftwareType,DateUTC
2015-03-01 00:00:00,17.9,6.0,30.86,West,267,1.0,1.0,61,0.00,,,0.00,0,weatherlink.com 1.10,2015-03-01 05:00:00,
2015-03-01 00:15:00,17.8,6.0,30.86,West,267,0.0,1.0,60,0.00,,,0.00,0,weatherlink.com 1.10,2015-03-01 05:15:00,
2015-03-01 00:30:00,17.6,6.0,30.85,West,263,0.0,3.0,61,0.00,,,0.00,0,weatherlink.com 1.10,2015-03-01 05:30:00,
2015-03-01 00:45:00,17.3,6.0,30.85,West,263,1.0,2.0,62,0.00,,,0.00,0,weatherlink.com 1.10,2015-03-01 05:45:00,
2015-03-01 01:00:00,16.9,6.0,30.85,West,263,0.0,1.0,63,0.00,,,0.00,0,weatherlink.com 1.10,2015-03-01 06:00:00,
2015-03-01 01:15:00,16.8,6.0,30.85,West,263,0.0,2.0,63,0.00,,,0.00,0,weatherlink.com 1.10,2015-03-01 06:15:00,
2015-03-01 01:30:00,16.7,6.0,30.84,West,264,0.0,2.0,63,0.00,,,0.00,0,weatherlink.com 1.10,2015-03-01 06:30:00,
2015-03-01 01:45:00,16.7,6.0,30.85,West,272,0.0,3.0,62,0.00,,,0.00,0,weatherlink.com 1.10,2015-03-01 06:45:00,
2015-03-01 02:16:00,17.0,6.0,30.85,West,276,2.0,7.0,61,0.00,,,0.00,0,weatherlink.com 1.10,2015-03-01 07:16:00,
2015-03-01 02:31:00,17.1,6.0,30.85,West,279,0.0,4.0,61,0.00,,,0.00,0,weatherlink.com 1.10,2015-03-01 07:31:00,
2015-03-01 02:46:00,17.0,6.0,30.83,West,277,0.0,4.0,63,0.00,,,0.00,0,weatherlink.com 1.10,2015-03-01 07:46:00,
2015-03-01 03:01:00,17.3,7.0,30.82,West,278,0.0,1.0,63,0.00,,,0.00,0,weatherlink.com 1.10,2015-03-01 08:01:00,
2015-03-01 03:16:00,17.5,7.0,30.82,West,277,0.0,1.0,64,0.00,,,0.00,0,weatherlink.com 1.10,2015-03-01 08:16:00,
2015-03-01 03:31:00,17.6,7.0,30.81,West,275,0.0,2.0,63,0.00,,,0.00,0,weatherlink.com 1.10,2015-03-01 08:31:00,
2015-03-01 03:46:00,17.6,7.0,30.81,West,275,0.0,0.0,63,0.00,,,0.00,0,weatherlink.com 1.10,2015-03-01 08:46:00,
2015-03-01 04:01:00,17.3,6.0,30.81,West,275,0.0,0.0,62,0.00,,,0.00,0,weatherlink.com 1.10,2015-03-01 09:01:00,
2015-03-01 04:16:00,17.7,6.0,30.82,West,275,0.0,0.0,60,0.00,,,0.00,0,weatherlink.com 1.10,2015-03-01 09:16:00,
2015-03-01 04:31:00,18.4,5.0,30.82,West,273,2.0,2.0,57,0.00,,,0.00,0,weatherlink.com 1.10,2015-03-01 09:31:00,
2015-03-01 04:46:00,18.3,6.0,30.82,West,272,0.0,1.0,60,0.00,,,0.00,0,weatherlink.com 1.10,2015-03-01 09:46:00,
2015-03-01 05:01:00,18.4,7.0,30.82,West,272,0.0,0.0,62,0.00,,,0.00,0,weatherlink.com 1.10,2015-03-01 10:01:00,
2015-03-01 05:16:00,18.4,8.0,30.82,West,272,0.0,0.0,63,0.00,,,0.00,0,weatherlink.com 1.10,2015-03-01 10:16:00,
2015-03-01 05:31:00,18.6,8.0,30.82,West,272,0.0,0.0,64,0.00,,,0.00,0,weatherlink.com 1.10,2015-03-01 10:31:00,
2015-03-01 05:46:00,18.8,8.0,30.81,West,272,0.0,0.0,64,0.00,,,0.00,0,weatherlink.com 1.10,2015-03-01 10:46:00,
2015-03-01 06:01:00,18.9,7.0,30.82,West,273,0.0,2.0,61,0.00,,,0.00,0,weatherlink.com 1.10,2015-03-01 11:01:00,
2015-03-01 06:16:00,19.0,8.0,30.82,West,271,1.0,2.0,63,0.00,,,0.00,0,weatherlink.com 1.10,2015-03-01 11:16:00,
2015-03-01 06:31:00,19.1,8.0,30.82,SW,228,4.0,4.0,61,0.00,,,0.00,0,weatherlink.com 1.10,2015-03-01 11:31:00,
2015-03-01 06:46:00,19.2,8.0,30.81,WSW,250,0.0,2.0,63,0.00,,,0.00,12,weatherlink.com 1.10,2015-03-01 11:46:00,
2015-03-01 07:01:00,19.3,9.0,30.81,WSW,250,0.0,1.0,64,0.00,,,0.00,26,weatherlink.com 1.10,2015-03-01 12:01:00,
2015-03-01 07:16:00,19.7,9.0,30.80,WSW,251,0.0,1.0,62,0.00,,,0.00,42,weatherlink.com 1.10,2015-03-01 12:16:00,
2015-03-01 07:31:00,20.1,9.0,30.79,WSW,251,0.0,1.0,62,0.00,,,0.00,42,weatherlink.com 1.10,2015-03-01 12:31:00,
2015-03-01 07:46:00,20.6,10.0,30.79,WSW,251,0.0,0.0,63,0.00,,,0.00,67,weatherlink.com 1.10,2015-03-01 12:46:00,
2015-03-01 08:01:00,21.1,9.0,30.79,WSW,251,0.0,0.0,60,0.00,,,0.00,63,weatherlink.com 1.10,2015-03-01 13:01:00,
2015-03-01 08:16:00,21.8,10.0,30.79,WSW,251,0.0,1.0,60,0.00,,,0.00,77,weatherlink.com 1.10,2015-03-01 13:16:00,
2015-03-01 08:31:00,22.1,9.0,30.78,SSW,204,0.0,3.0,58,0.00,,,0.00,102,weatherlink.com 1.10,2015-03-01 13:31:00,
2015-03-01 08:46:00,22.5,10.0,30.78,SW,216,1.0,4.0,58,0.00,,,0.00,116,weatherlink.com 1.10,2015-03-01 13:46:00,
2015-03-01 09:16:00,23.8,9.0,30.76,SSE,162,0.0,2.0,54,0.00,,,0.00,104,weatherlink.com 1.10,2015-03-01 14:16:00,
2015-03-01 09:31:00,24.4,9.0,30.75,SSE,157,1.0,3.0,53,0.00,,,0.00,137,weatherlink.com 1.10,2015-03-01 14:31:00,
2015-03-01 09:47:00,25.1,10.0,30.75,South,191,1.0,6.0,52,0.00,,,0.00,144,weatherlink.com 1.10,2015-03-01 14:47:00,
2015-03-01 10:02:00,25.8,10.0,30.75,South,181,3.0,5.0,51,0.00,,,0.00,141,weatherlink.com 1.10,2015-03-01 15:02:00,
2015-03-01 10:17:00,26.5,10.0,30.75,SW,232,2.0,6.0,50,0.00,,,0.00,176,weatherlink.com 1.10,2015-03-01 15:17:00,
2015-03-01 10:32:00,26.9,10.0,30.75,SSW,197,3.0,7.0,50,0.00,,,0.00,216,weatherlink.com 1.10,2015-03-01 15:32:00,
2015-03-01 10:47:00,27.5,11.0,30.73,WSW,248,3.0,7.0,50,0.00,,,0.00,156,weatherlink.com 1.10,2015-03-01 15:47:00,
2015-03-01 11:02:00,27.7,12.0,30.73,South,188,0.0,7.0,51,0.00,,,0.00,144,weatherlink.com 1.10,2015-03-01 16:02:00,
2015-03-01 11:17:00,27.9,12.0,30.73,SSW,193,7.0,7.0,52,0.00,,,0.00,153,weatherlink.com 1.10,2015-03-01 16:17:00,